Time;durP1;ratioP1;P1;durP2;ratioP2;P2;SDS_P1;SDS_P2;PMS_P1;PMS_P2;Temp;Humidity;BMP_temperature;BMP_pressure;BME280_temperature;BME280_humidity;BME280_pressure;Samples;Min_cycle;Max_cycle;Signal;HPM_P1;HPM_P2
2023/09/07 00:01:45;;;;;;;;;;;;;;;-145.06;0.00;60892.56;6062455;22;19908;-93
2023/09/07 00:04:24;;;;;;;;;;;;;;;-145.06;0.00;60892.56;6062436;22;19907;-93
2023/09/07 00:07:03;;;;;;;;;;;;;;;-145.06;0.00;60892.56;6062598;22;19908;-92
2023/09/07 00:09:44;;;;;;;;;;;;;;;-145.06;0.00;60892.56;6061792;22;19907;-92
2023/09/07 00:12:24;;;;;;;;;;;;;;;-145.06;0.00;60892.56;6062636;22;19907;-92
2023/09/07 00:15:03;;;;;;;;;;;;;;;-145.06;0.00;60892.56;6062053;22;19907;-92
2023/09/07 00:17:42;;;;;;;;;;;;;;;-145.06;0.00;60892.56;6062196;22;19907;-92
2023/09/07 00:20:25;;;;;;;;;;;;;;;-145.06;0.00;60892.56;6061879;22;19907;-92
2023/09/07 00:23:04;;;;;;;;;;;;;;;-145.06;0.00;60892.56;6061238;22;20329;-92
2023/09/07 00:25:45;;;;;;;;;;;;;;;-145.06;0.00;60892.56;6062143;22;19908;-92
2023/09/07 00:28:27;;;;;;;;;;;;;;;-145.06;0.00;60892.56;6061820;22;20325;-92
2023/09/07 00:31:06;;;;;;;;;;;;;;;-145.06;0.00;60892.56;6062078;22;19907;-92
2023/09/07 00:33:45;;;;;;;;;;;;;;;-145.06;0.00;60892.56;6061745;22;19907;-93
2023/09/07 00:36:26;;;;;;;;;;;;;;;-145.06;0.00;60892.56;6061976;22;19926;-92
2023/09/07 00:39:05;;;;;;;;;;;;;;;-145.06;0.00;60892.56;6062506;22;19907;-92
2023/09/07 00:41:44;;;;;;;;;;;;;;;-145.06;0.00;60892.56;6061579;22;19939;-93
2023/09/07 00:44:26;;;;;;;;;;;;;;;21.08;0.00;60892.56;6061973;22;19912;-93
2023/09/07 00:47:05;;;;;;;;;;;;;;;-145.06;0.00;60892.56;6061896;22;19907;-94
2023/09/07 00:49:44;;;;;;;;;;;;;;;-145.06;0.00;60892.56;6061986;22;20219;-92
2023/09/07 00:52:23;;;;;;;;;;;;;;;-145.06;0.00;60892.56;6062468;22;19907;-91
2023/09/07 00:55:06;;;;;;;;;;;;;;;-145.06;0.00;60892.56;6062440;22;19907;-93
2023/09/07 00:57:46;;;;;;;;;;;;;;;-145.06;0.00;60892.56;6061391;22;19907;-93
2023/09/07 01:00:25;;;;;;;;;;;;;;;-145.06;0.00;60892.56;6061229;22;19907;-92
2023/09/07 01:03:04;;;;;;;;;;;;;;;-145.06;0.00;60892.56;6061864;22;19978;-92
2023/09/07 01:05:49;;;;;;;;;;;;;;;-145.06;0.00;60892.56;6061763;22;19907;-92
2023/09/07 01:08:32;;;;;;;;;;;;;;;19.64;0.00;60892.56;6062050;22;19915;-93
2023/09/07 01:11:15;;;;;;;;;;;;;;;-145.06;0.00;60892.56;6061780;22;19930;-91
2023/09/07 01:13:55;;;;;;;;;;;;;;;-145.06;0.00;60892.56;6062049;22;20291;-92
2023/09/07 01:16:35;;;;;;;;;;;;;;;-145.06;0.00;60892.56;6061729;22;19907;-92
2023/09/07 01:19:14;;;;;;;;;;;;;;;-145.06;0.00;60892.56;6061942;22;20210;-92
2023/09/07 01:21:54;;;;;;;;;;;;;;;-145.06;0.00;60892.56;6059967;22;19907;-93
2023/09/07 01:24:34;;;;;;;;;;;;;;;-145.06;0.00;60892.56;6060927;22;19927;-92
2023/09/07 01:27:14;;;;;;;;;;;;;;;-145.06;0.00;60892.56;6061304;22;19982;-92
2023/09/07 01:29:53;;;;;;;;;;;;;;;-145.06;0.00;60892.56;6061393;22;19927;-92
2023/09/07 01:32:32;;;;;;;;;;;;;;;-145.06;0.00;60892.56;6061732;22;19951;-93
2023/09/07 01:35:14;;;;;;;;;;;;;;;-145.06;0.00;60892.56;6061638;22;19908;-91
2023/09/07 01:37:53;;;;;;;;;;;;;;;-145.06;0.00;60892.56;6061681;22;19907;-92
2023/09/07 01:40:32;;;;;;;;;;;;;;;-145.06;0.00;60892.56;6073536;22;19907;-93
2023/09/07 01:43:11;;;;;;;;;;;;;;;-145.06;0.00;60892.56;6061901;22;19911;-91
2023/09/07 01:45:50;;;;;;;;;;;;;;;-145.06;0.00;60892.56;6061356;22;19907;-94
2023/09/07 01:48:30;;;;;;;;;;;;;;;-145.06;0.00;60892.56;6061949;22;19920;-92
2023/09/07 01:51:09;;;;;;;;;;;;;;;-145.06;0.00;60892.56;6062225;22;19912;-93
2023/09/07 01:53:48;;;;;;;;;;;;;;;-145.06;0.00;60892.56;6061648;22;19911;-93
2023/09/07 01:56:27;;;;;;;;;;;;;;;-145.06;0.00;60892.56;6061719;22;19907;-92
2023/09/07 01:59:06;;;;;;;;;;;;;;;-145.06;0.00;60892.56;6061717;22;20218;-93
2023/09/07 02:01:51;;;;;;;;;;;;;;;-145.06;0.00;60892.56;6060903;22;19931;-92
2023/09/07 02:04:36;;;;;;;;;;;;;;;-145.06;0.00;60892.56;6061897;22;19907;-92
2023/09/07 02:07:18;;;;;;;;;;;;;;;-145.06;0.00;60892.56;6061315;22;19935;-93
2023/09/07 02:09:57;;;;;;;;;;;;;;;-145.06;0.00;60892.56;6063213;22;19908;-94
2023/09/07 02:12:36;;;;;;;;;;;;;;;-145.06;0.00;60892.56;6063455;22;19931;-93
2023/09/07 02:15:18;;;;;;;;;;;;;;;-145.06;0.00;60892.56;6063565;22;19907;-92
2023/09/07 02:17:57;;;;;;;;;;;;;;;-145.06;0.00;60892.56;6063201;22;19907;-92
2023/09/07 02:20:36;;;;;;;;;;;;;;;-145.06;0.00;60892.56;6063337;22;19911;-92
2023/09/07 02:23:15;;;;;;;;;;;;;;;18.45;0.00;60892.56;6063152;22;19907;-92
2023/09/07 02:25:54;;;;;;;;;;;;;;;18.42;0.00;60892.56;6063252;22;19907;-92
2023/09/07 02:28:33;;;;;;;;;;;;;;;18.38;0.00;60892.56;6063166;22;20309;-93
2023/09/07 02:31:12;;;;;;;;;;;;;;;18.35;0.00;60892.56;6062593;22;19908;-92
2023/09/07 02:33:51;;;;;;;;;;;;;;;18.31;0.00;60892.56;6062923;22;20325;-92
2023/09/07 02:36:30;;;;;;;;;;;;;;;18.28;0.00;60892.56;6062589;22;19911;-92
2023/09/07 02:39:11;;;;;;;;;;;;;;;18.25;0.00;60892.56;6062908;22;19907;-92
2023/09/07 02:41:49;;;;;;;;;;;;;;;18.20;0.00;60892.56;6063024;22;19911;-92
2023/09/07 02:44:28;;;;;;;;;;;;;;;-145.06;0.00;60892.56;6062803;22;19911;-94
2023/09/07 02:47:07;;;;;;;;;;;;;;;-145.06;0.00;60892.56;6062198;22;19907;-92
2023/09/07 02:49:47;;;;;;;;;;;;;;;-145.06;0.00;60892.56;6062865;22;19922;-92
2023/09/07 02:52:25;;;;;;;;;;;;;;;-145.06;0.00;60892.56;6062571;22;19907;-93
2023/09/07 02:55:05;;;;;;;;;;;;;;;-145.06;0.00;60892.56;6062556;22;19907;-93
2023/09/07 02:57:44;;;;;;;;;;;;;;;-145.06;0.00;60892.56;6062470;22;19907;-92
2023/09/07 03:00:23;;;;;;;;;;;;;;;-145.06;0.00;60892.56;6062747;22;20219;-93
2023/09/07 03:03:02;;;;;;;;;;;;;;;-145.06;0.00;60892.56;6062987;22;19911;-92
2023/09/07 03:05:42;;;;;;;;;;;;;;;-145.06;0.00;60892.56;6073668;22;19907;-92
2023/09/07 03:08:21;;;;;;;;;;;;;;;-145.06;0.00;60892.56;6062803;22;19915;-93
2023/09/07 03:11:04;;;;;;;;;;;;;;;-145.06;0.00;60892.56;6063279;22;19911;-93
2023/09/07 03:13:43;;;;;;;;;;;;;;;-145.06;0.00;60892.56;6063525;22;20242;-93
2023/09/07 03:16:22;;;;;;;;;;;;;;;-145.06;0.00;60892.56;6063328;22;19907;-91
2023/09/07 03:19:01;;;;;;;;;;;;;;;-145.06;0.00;60892.56;6073947;22;20167;-92
2023/09/07 03:21:40;;;;;;;;;;;;;;;-145.06;0.00;60892.56;6062464;22;19907;-92
2023/09/07 03:24:20;;;;;;;;;;;;;;;-145.06;0.00;60892.56;6063297;22;20210;-92
2023/09/07 03:26:59;;;;;;;;;;;;;;;-145.06;0.00;60892.56;6062633;22;19938;-92
2023/09/07 03:29:38;;;;;;;;;;;;;;;-145.06;0.00;60892.56;6063117;22;19911;-93
2023/09/07 03:32:20;;;;;;;;;;;;;;;-145.06;0.00;60892.56;6063046;22;19908;-93
2023/09/07 03:35:00;;;;;;;;;;;;;;;-145.06;0.00;60892.56;6062792;22;19908;-91
2023/09/07 03:37:41;;;;;;;;;;;;;;;-145.06;0.00;60892.56;6062470;22;19912;-92
2023/09/07 03:40:20;;;;;;;;;;;;;;;-145.06;0.00;60892.56;6062347;22;19938;-92
2023/09/07 03:42:59;;;;;;;;;;;;;;;-145.06;0.00;60892.56;6062647;22;19911;-92
2023/09/07 03:45:38;;;;;;;;;;;;;;;-145.06;0.00;60892.56;6062807;22;19903;-92
2023/09/07 03:48:25;;;;;;;;;;;;;;;-145.06;0.00;60892.56;6062111;22;19911;-92
2023/09/07 03:51:07;;;;;;;;;;;;;;;-145.06;0.00;60892.56;6062533;22;19907;-93
2023/09/07 03:53:46;;;;;;;;;;;;;;;-145.06;0.00;60892.56;6060518;22;20210;-92
2023/09/07 03:56:25;;;;;;;;;;;;;;;-145.06;0.00;60892.56;6061995;22;19971;-92
2023/09/07 03:59:04;;;;;;;;;;;;;;;-145.06;0.00;60892.56;6061973;22;20330;-92
2023/09/07 04:01:43;;;;;;;;;;;;;;;-145.06;0.00;60892.56;6062029;22;20210;-93
2023/09/07 04:04:25;;;;;;;;;;;;;;;-145.06;0.00;60892.56;6062042;22;19907;-92
2023/09/07 04:07:04;;;;;;;;;;;;;;;-145.06;0.00;60892.56;6062248;22;19938;-93
2023/09/07 04:09:46;;;;;;;;;;;;;;;-145.06;0.00;60892.56;6062418;22;19955;-92
2023/09/07 04:12:26;;;;;;;;;;;;;;;-145.06;0.00;60892.56;6062162;22;19907;-92
2023/09/07 04:15:05;;;;;;;;;;;;;;;-145.06;0.00;60892.56;6062135;22;19907;-92
2023/09/07 04:18:02;;;;;;;;;;;;;;;;;;;;;
2023/09/07 04:20:45;;;;;;;;;;;;;;;-145.06;0.00;60892.56;6077529;22;21979;-92
2023/09/07 04:23:26;;;;;;;;;;;;;;;-145.06;0.00;60892.56;6092395;22;19990;-93
2023/09/07 04:26:06;;;;;;;;;;;;;;;-145.06;0.00;60892.56;6091995;22;19910;-92
2023/09/07 04:28:45;;;;;;;;;;;;;;;-145.06;0.00;60892.56;6091223;22;20317;-92
2023/09/07 04:31:30;;;;;;;;;;;;;;;-145.06;0.00;60892.56;6094305;22;19989;-91
2023/09/07 04:34:09;;;;;;;;;;;;;;;-145.06;0.00;60892.56;6096323;22;19907;-91
2023/09/07 04:36:48;;;;;;;;;;;;;;;-145.06;0.00;60892.56;6095572;22;19907;-92
2023/09/07 04:39:27;;;;;;;;;;;;;;;-145.06;0.00;60892.56;6095712;22;19907;-91
2023/09/07 04:42:06;;;;;;;;;;;;;;;-145.06;0.00;60892.56;6094625;22;20209;-92
2023/09/07 04:44:45;;;;;;;;;;;;;;;-145.06;0.00;60892.56;6092846;22;19910;-91
2023/09/07 04:47:25;;;;;;;;;;;;;;;-145.06;0.00;60892.56;6092650;22;19914;-91
2023/09/07 05:10:06;;;;;;;;;;;;;;;-145.06;0.00;60892.56;6039321;22;19915;-91
2023/09/07 05:12:45;;;;;;;;;;;;;;;-145.06;0.00;60892.56;6061010;22;19907;-90
2023/09/07 05:15:24;;;;;;;;;;;;;;;-145.06;0.00;60892.56;6062559;22;19946;-89
2023/09/07 05:18:03;;;;;;;;;;;;;;;-145.06;0.00;60892.56;6062843;22;19908;-92
2023/09/07 05:20:44;;;;;;;;;;;;;;;-145.06;0.00;60892.56;6062320;22;19907;-92
2023/09/07 05:23:25;;;;;;;;;;;;;;;-145.06;0.00;60892.56;6064305;22;19907;-91
2023/09/07 05:26:04;;;;;;;;;;;;;;;-145.06;0.00;60892.56;6062788;22;19935;-92
2023/09/07 05:28:43;;;;;;;;;;;;;;;-145.06;0.00;60892.56;6063782;22;19911;-90
2023/09/07 05:31:22;;;;;;;;;;;;;;;-145.06;0.00;60892.56;6063505;22;19907;-92
2023/09/07 05:34:01;;;;;;;;;;;;;;;-145.06;0.00;60892.56;6063780;22;19950;-90
2023/09/07 05:36:40;;;;;;;;;;;;;;;-145.06;0.00;60892.56;6063638;22;20222;-93
2023/09/07 05:39:19;;;;;;;;;;;;;;;-145.06;0.00;60892.56;6063332;22;20329;-91
2023/09/07 05:41:58;;;;;;;;;;;;;;;-145.06;0.00;60892.56;6064643;22;19907;-92
2023/09/07 05:44:37;;;;;;;;;;;;;;;-145.06;0.00;60892.56;6062856;22;19911;-91
2023/09/07 05:47:17;;;;;;;;;;;;;;;-145.06;0.00;60892.56;6063693;22;19978;-92
2023/09/07 05:49:56;;;;;;;;;;;;;;;-145.06;0.00;60892.56;6063426;22;20326;-92
2023/09/07 05:52:35;;;;;;;;;;;;;;;-145.06;0.00;60892.56;6062883;22;19904;-91
2023/09/07 05:55:14;;;;;;;;;;;;;;;-145.06;0.00;60892.56;6064989;22;19911;-92
2023/09/07 05:57:56;;;;;;;;;;;;;;;-145.06;0.00;60892.56;6063429;22;19931;-93
2023/09/07 06:00:39;;;;;;;;;;;;;;;-145.06;0.00;60892.56;6063795;22;19907;-92
2023/09/07 06:03:18;;;;;;;;;;;;;;;-145.06;0.00;60892.56;6063996;22;20314;-92
2023/09/07 06:05:57;;;;;;;;;;;;;;;-145.06;0.00;60892.56;6063656;22;19911;-92
2023/09/07 06:08:35;;;;;;;;;;;;;;;-145.06;0.00;60892.56;6063546;22;19942;-93
2023/09/07 06:11:14;;;;;;;;;;;;;;;-145.06;0.00;60892.56;6062524;22;20342;-91
2023/09/07 06:13:53;;;;;;;;;;;;;;;-145.06;0.00;60892.56;6063558;22;19986;-92
2023/09/07 06:16:32;;;;;;;;;;;;;;;-145.06;0.00;60892.56;6062867;22;19911;-92
2023/09/07 06:19:11;;;;;;;;;;;;;;;-145.06;0.00;60892.56;6063353;22;19907;-93
2023/09/07 06:21:50;;;;;;;;;;;;;;;-145.06;0.00;60892.56;6063194;22;19907;-92
2023/09/07 06:24:29;;;;;;;;;;;;;;;-145.06;0.00;60892.56;6062418;22;19907;-91
2023/09/07 06:27:08;;;;;;;;;;;;;;;-145.06;0.00;60892.56;6063744;22;19979;-92
2023/09/07 06:29:47;;;;;;;;;;;;;;;-145.06;0.00;60892.56;6063692;22;19911;-92
2023/09/07 06:32:26;;;;;;;;;;;;;;;-145.06;0.00;60892.56;6064240;22;20465;-92
2023/09/07 06:35:06;;;;;;;;;;;;;;;-145.06;0.00;60892.56;6063473;22;19978;-90
2023/09/07 06:37:45;;;;;;;;;;;;;;;-145.06;0.00;60892.56;6063288;22;20048;-91
2023/09/07 06:40:25;;;;;;;;;;;;;;;-145.06;0.00;60892.56;6063141;22;19907;-92
2023/09/07 06:43:05;;;;;;;;;;;;;;;-145.06;0.00;60892.56;6063548;22;19911;-94
2023/09/07 06:45:44;;;;;;;;;;;;;;;-145.06;0.00;60892.56;6063326;22;19911;-92
2023/09/07 06:48:23;;;;;;;;;;;;;;;-145.06;0.00;60892.56;6064077;22;19911;-93
2023/09/07 06:51:03;;;;;;;;;;;;;;;-145.06;0.00;60892.56;6063771;22;19907;-93
2023/09/07 06:53:42;;;;;;;;;;;;;;;-145.06;0.00;60892.56;6064106;22;20334;-91
2023/09/07 06:56:22;;;;;;;;;;;;;;;-145.06;0.00;60892.56;6064940;22;19908;-92
2023/09/07 06:59:01;;;;;;;;;;;;;;;-145.06;0.00;60892.56;6065868;22;20478;-93
2023/09/07 07:01:40;;;;;;;;;;;;;;;-145.06;0.00;60892.56;6065871;22;19907;-92
2023/09/07 07:04:19;;;;;;;;;;;;;;;-145.06;0.00;60892.56;6065407;22;20386;-91
2023/09/07 07:07:00;;;;;;;;;;;;;;;-145.06;0.00;60892.56;6065898;22;19907;-92
2023/09/07 07:09:40;;;;;;;;;;;;;;;-145.06;0.00;60892.56;6064811;22;19931;-91
2023/09/07 07:12:20;;;;;;;;;;;;;;;-145.06;0.00;60892.56;6065720;22;19911;-91
2023/09/07 07:15:00;;;;;;;;;;;;;;;-145.06;0.00;60892.56;6065061;22;19907;-92
2023/09/07 07:17:39;;;;;;;;;;;;;;;-145.06;0.00;60892.56;6066203;22;19907;-93
2023/09/07 07:20:18;;;;;;;;;;;;;;;-145.06;0.00;60892.56;6065311;22;20103;-91
2023/09/07 07:22:57;;;;;;;;;;;;;;;-145.06;0.00;60892.56;6065813;22;19911;-92
2023/09/07 07:25:37;;;;;;;;;;;;;;;-145.06;0.00;60892.56;6067712;22;19908;-92
2023/09/07 07:28:16;;;;;;;;;;;;;;;18.35;0.00;60892.56;6065278;22;20281;-92
2023/09/07 07:30:55;;;;;;;;;;;;;;;18.41;0.00;60892.56;6065780;22;19908;-91
2023/09/07 07:33:33;;;;;;;;;;;;;;;-145.06;0.00;60892.56;6065351;22;19907;-91
2023/09/07 07:36:13;;;;;;;;;;;;;;;-145.06;0.00;60892.56;6065325;22;20365;-92
2023/09/07 07:38:51;;;;;;;;;;;;;;;-145.06;0.00;60892.56;6065553;22;19907;-91
2023/09/07 07:41:31;;;;;;;;;;;;;;;-145.06;0.00;60892.56;6065463;22;19907;-93
2023/09/07 07:44:09;;;;;;;;;;;;;;;-145.06;0.00;60892.56;6065896;22;19954;-91
2023/09/07 07:46:49;;;;;;;;;;;;;;;-145.06;0.00;60892.56;6065265;22;19911;-92
2023/09/07 07:49:28;;;;;;;;;;;;;;;-145.06;0.00;60892.56;6065016;22;19942;-91
2023/09/07 07:52:06;;;;;;;;;;;;;;;-145.06;0.00;60892.56;6065110;22;20318;-92
2023/09/07 07:54:45;;;;;;;;;;;;;;;-145.06;0.00;60892.56;6066283;22;19955;-92
2023/09/07 07:57:24;;;;;;;;;;;;;;;-145.06;0.00;60892.56;6065686;22;20314;-93
2023/09/07 08:00:04;;;;;;;;;;;;;;;-145.06;0.00;60892.56;6065350;22;19939;-93
2023/09/07 08:02:43;;;;;;;;;;;;;;;-145.06;0.00;60892.56;6065088;22;19903;-93
2023/09/07 08:05:22;;;;;;;;;;;;;;;-145.06;0.00;60892.56;6065698;22;19907;-93
2023/09/07 08:08:02;;;;;;;;;;;;;;;-145.06;0.00;60892.56;6065292;22;19942;-92
2023/09/07 08:10:41;;;;;;;;;;;;;;;-145.06;0.00;60892.56;6065504;22;19990;-91
2023/09/07 08:13:20;;;;;;;;;;;;;;;-145.06;0.00;60892.56;6065672;22;19907;-92
2023/09/07 08:16:03;;;;;;;;;;;;;;;-145.06;0.00;60892.56;6076463;22;19908;-92
2023/09/07 08:18:42;;;;;;;;;;;;;;;-145.06;0.00;60892.56;6065508;22;19911;-92
2023/09/07 08:21:21;;;;;;;;;;;;;;;-145.06;0.00;60892.56;6065152;22;19907;-93
2023/09/07 08:24:01;;;;;;;;;;;;;;;-145.06;0.00;60892.56;6064553;22;19908;-92
2023/09/07 08:26:40;;;;;;;;;;;;;;;-145.06;0.00;60892.56;6064811;22;19911;-92
2023/09/07 08:29:20;;;;;;;;;;;;;;;-145.06;0.00;60892.56;6065059;22;19911;-92
2023/09/07 08:32:01;;;;;;;;;;;;;;;-145.06;0.00;60892.56;6065746;22;19907;-92
2023/09/07 08:34:41;;;;;;;;;;;;;;;-145.06;0.00;60892.56;6065055;22;19907;-93
2023/09/07 08:37:20;;;;;;;;;;;;;;;-145.06;0.00;60892.56;6065209;22;19907;-92
2023/09/07 08:39:59;;;;;;;;;;;;;;;-145.06;0.00;60892.56;6065483;22;19908;-92
2023/09/07 08:42:39;;;;;;;;;;;;;;;-145.06;0.00;60892.56;6065460;22;19903;-92
2023/09/07 08:45:20;;;;;;;;;;;;;;;-145.06;0.00;60892.56;6065490;22;19911;-91
2023/09/07 08:47:59;;;;;;;;;;;;;;;-145.06;0.00;60892.56;6065086;22;19911;-93
2023/09/07 08:50:38;;;;;;;;;;;;;;;-145.06;0.00;60892.56;6065031;22;19990;-92
2023/09/07 08:53:21;;;;;;;;;;;;;;;-145.06;0.00;60892.56;6064976;22;19911;-93
2023/09/07 08:56:01;;;;;;;;;;;;;;;-145.06;0.00;60892.56;6065406;22;19912;-93
2023/09/07 08:58:40;;;;;;;;;;;;;;;-145.06;0.00;60892.56;6065078;22;20329;-93
2023/09/07 09:01:21;;;;;;;;;;;;;;;-145.06;0.00;60892.56;6063583;22;19908;-92
2023/09/07 09:04:00;;;;;;;;;;;;;;;-145.06;0.00;60892.56;6063206;22;19907;-93
2023/09/07 09:06:39;;;;;;;;;;;;;;;-145.06;0.00;60892.56;6062659;22;20361;-92
2023/09/07 09:09:24;;;;;;;;;;;;;;;-145.06;0.00;60892.56;6061877;22;19915;-93
2023/09/07 09:12:07;;;;;;;;;;;;;;;-145.06;0.00;60892.56;6061676;22;19911;-92
2023/09/07 09:14:46;;;;;;;;;;;;;;;-145.06;0.00;60892.56;6062101;22;19907;-93
2023/09/07 09:17:25;;;;;;;;;;;;;;;-145.06;0.00;60892.56;6061585;22;19907;-92
2023/09/07 09:20:09;;;;;;;;;;;;;;;-145.06;0.00;60892.56;6061698;22;19907;-92
2023/09/07 09:22:51;;;;;;;;;;;;;;;-145.06;0.00;60892.56;6061762;22;19907;-93
2023/09/07 09:25:31;;;;;;;;;;;;;;;23.20;0.00;60892.56;6061764;22;19907;-92
2023/09/07 09:28:13;;;;;;;;;;;;;;;23.29;0.00;60892.56;6060972;22;19911;-94
2023/09/07 09:30:51;;;;;;;;;;;;;;;23.41;0.00;60892.56;6061628;22;19907;-92
2023/09/07 09:33:31;;;;;;;;;;;;;;;23.52;0.00;60892.56;6061129;22;19911;-93
2023/09/07 09:36:10;;;;;;;;;;;;;;;-145.06;0.00;60892.56;6061555;22;19950;-94
2023/09/07 09:38:50;;;;;;;;;;;;;;;-145.06;0.00;60892.56;6064158;22;19907;-94
2023/09/07 09:41:34;;;;;;;;;;;;;;;-145.06;0.00;60892.56;6064726;22;19907;-92
2023/09/07 09:44:15;;;;;;;;;;;;;;;-145.06;0.00;60892.56;6064848;22;19907;-93
2023/09/07 09:46:55;;;;;;;;;;;;;;;-145.06;0.00;60892.56;6064125;22;19907;-93
2023/09/07 09:49:35;;;;;;;;;;;;;;;-145.06;0.00;60892.56;6064417;22;19911;-93
2023/09/07 09:52:15;;;;;;;;;;;;;;;-145.06;0.00;60892.56;6064254;22;20318;-91
2023/09/07 09:54:55;;;;;;;;;;;;;;;-145.06;0.00;60892.56;6063962;22;19986;-93
2023/09/07 09:57:35;;;;;;;;;;;;;;;-145.06;0.00;60892.56;6075680;22;19907;-93
2023/09/07 10:03:02;;;;;;;;;;;;;;;-145.06;0.00;60892.56;6075477;22;19907;-93
2023/09/07 10:05:44;;;;;;;;;;;;;;;-145.06;0.00;60892.56;6064117;22;19907;-93
2023/09/07 10:08:23;;;;;;;;;;;;;;;-145.06;0.00;60892.56;6064448;22;20284;-93
2023/09/07 10:11:10;;;;;;;;;;;;;;;-145.06;0.00;60892.56;6064034;22;19911;-93
2023/09/07 10:13:56;;;;;;;;;;;;;;;-145.06;0.00;60892.56;6065028;22;19907;-92
2023/09/07 10:16:49;;;;;;;;;;;;;;;-145.06;0.00;60892.56;6064572;22;20246;-93
2023/09/07 10:19:28;;;;;;;;;;;;;;;-145.06;0.00;60892.56;6063372;22;19915;-93
2023/09/07 10:22:07;;;;;;;;;;;;;;;-145.06;0.00;60892.56;6064451;22;19982;-94
2023/09/07 10:24:57;;;;;;;;;;;;;;;-145.06;0.00;60892.56;6064161;22;19907;-93
2023/09/07 10:27:36;;;;;;;;;;;;;;;-145.06;0.00;60892.56;6064231;22;19915;-94
2023/09/07 10:30:19;;;;;;;;;;;;;;;-145.06;0.00;60892.56;6065541;22;19907;-94
2023/09/07 10:32:58;;;;;;;;;;;;;;;-145.06;0.00;60892.56;6066707;22;19923;-94
2023/09/07 10:35:37;;;;;;;;;;;;;;;-145.06;0.00;60892.56;6067114;22;19911;-92
2023/09/07 10:38:16;;;;;;;;;;;;;;;-145.06;0.00;60892.56;6066091;22;19955;-93
2023/09/07 10:40:59;;;;;;;;;;;;;;;-145.06;0.00;60892.56;6066362;22;19982;-92
2023/09/07 10:43:47;;;;;;;;;;;;;;;-145.06;0.00;60892.56;6065852;22;20284;-93
2023/09/07 10:46:26;;;;;;;;;;;;;;;-145.06;0.00;60892.56;6065926;22;19908;-93
2023/09/07 10:49:11;;;;;;;;;;;;;;;-145.06;0.00;60892.56;6066290;22;19911;-93
2023/09/07 10:51:49;;;;;;;;;;;;;;;-145.06;0.00;60892.56;6065766;22;19907;-93
2023/09/07 10:54:28;;;;;;;;;;;;;;;187.52;0.00;60892.56;6066509;22;19908;-92
2023/09/07 10:57:08;;;;;;;;;;;;;;;-145.06;0.00;60892.56;6066022;22;19911;-93
2023/09/07 10:59:47;;;;;;;;;;;;;;;104.26;0.00;60892.56;6065593;22;19911;-93
2023/09/07 11:02:26;;;;;;;;;;;;;;;-145.06;0.00;60892.56;6067389;22;19907;-94
2023/09/07 11:05:06;;;;;;;;;;;;;;;-145.06;0.00;60892.56;6065857;22;19912;-92
2023/09/07 11:07:44;;;;;;;;;;;;;;;-145.06;0.00;60892.56;6065887;22;19911;-93
2023/09/07 11:10:23;;;;;;;;;;;;;;;-145.06;0.00;60892.56;6066048;22;19935;-94
2023/09/07 11:13:04;;;;;;;;;;;;;;;-145.06;0.00;60892.56;6065763;22;19907;-93
2023/09/07 11:15:43;;;;;;;;;;;;;;;-145.06;0.00;60892.56;6065819;22;19907;-93
2023/09/07 11:18:22;;;;;;;;;;;;;;;-145.06;0.00;60892.56;6065842;22;19907;-95
2023/09/07 11:21:03;;;;;;;;;;;;;;;-145.06;0.00;60892.56;6066128;22;19907;-93
2023/09/07 11:23:44;;;;;;;;;;;;;;;-145.06;0.00;60892.56;6064175;22;19982;-92
2023/09/07 11:26:24;;;;;;;;;;;;;;;-145.06;0.00;60892.56;6064047;22;20314;-93
2023/09/07 11:29:04;;;;;;;;;;;;;;;-145.06;0.00;60892.56;6075966;22;19911;-93
2023/09/07 11:31:44;;;;;;;;;;;;;;;-145.06;0.00;60892.56;6064903;22;19907;-93
2023/09/07 11:34:23;;;;;;;;;;;;;;;-145.06;0.00;60892.56;6065525;22;19955;-93
2023/09/07 11:37:02;;;;;;;;;;;;;;;-145.06;0.00;60892.56;6065452;22;20214;-93
2023/09/07 11:39:41;;;;;;;;;;;;;;;-145.06;0.00;60892.56;6066245;22;20219;-94
2023/09/07 11:42:20;;;;;;;;;;;;;;;-145.06;0.00;60892.56;6065814;22;19912;-93
2023/09/07 11:44:59;;;;;;;;;;;;;;;-145.06;0.00;60892.56;6065625;22;19931;-93
2023/09/07 11:47:38;;;;;;;;;;;;;;;-145.06;0.00;60892.56;6065057;22;20021;-92
2023/09/07 11:50:18;;;;;;;;;;;;;;;-145.06;0.00;60892.56;6064541;22;19907;-92
2023/09/07 11:52:56;;;;;;;;;;;;;;;-145.06;0.00;60892.56;6065157;22;19908;-92
2023/09/07 11:55:35;;;;;;;;;;;;;;;-145.06;0.00;60892.56;6064956;22;19907;-93
2023/09/07 11:58:14;;;;;;;;;;;;;;;-145.06;0.00;60892.56;6065630;22;19907;-93
2023/09/07 12:00:54;;;;;;;;;;;;;;;-145.06;0.00;60892.56;6065235;22;19907;-93
2023/09/07 12:03:34;;;;;;;;;;;;;;;-145.06;0.00;60892.56;6064835;22;20330;-93
2023/09/07 12:06:13;;;;;;;;;;;;;;;-145.06;0.00;60892.56;6065417;22;19978;-93
2023/09/07 12:09:02;;;;;;;;;;;;;;;-145.06;0.00;60892.56;6064644;22;19911;-93
2023/09/07 12:11:42;;;;;;;;;;;;;;;-145.06;0.00;60892.56;6065244;22;19912;-92
2023/09/07 12:14:22;;;;;;;;;;;;;;;-145.06;0.00;60892.56;6064941;22;19935;-93
2023/09/07 12:17:01;;;;;;;;;;;;;;;-145.06;0.00;60892.56;6061686;22;19907;-93
2023/09/07 12:19:41;;;;;;;;;;;;;;;-145.06;0.00;60892.56;6061133;22;19908;-92
2023/09/07 12:22:20;;;;;;;;;;;;;;;-145.06;0.00;60892.56;6061358;22;19907;-92
2023/09/07 12:24:59;;;;;;;;;;;;;;;-145.06;0.00;60892.56;6061122;22;19907;-93
2023/09/07 12:27:38;;;;;;;;;;;;;;;-145.06;0.00;60892.56;6061027;22;20269;-93
2023/09/07 12:30:22;;;;;;;;;;;;;;;-145.06;0.00;60892.56;6061109;22;19907;-92
2023/09/07 12:33:01;;;;;;;;;;;;;;;-145.06;0.00;60892.56;6061093;22;19907;-93
2023/09/07 12:35:40;;;;;;;;;;;;;;;-145.06;0.00;60892.56;6060300;22;19907;-93
2023/09/07 12:38:21;;;;;;;;;;;;;;;-145.06;0.00;60892.56;6060498;22;20254;-92
2023/09/07 12:41:00;;;;;;;;;;;;;;;-145.06;0.00;60892.56;6060653;22;19908;-93
2023/09/07 12:43:39;;;;;;;;;;;;;;;-145.06;0.00;60892.56;6060848;22;19907;-92
2023/09/07 12:46:18;;;;;;;;;;;;;;;-145.06;0.00;60892.56;6060389;22;19911;-92
2023/09/07 12:48:57;;;;;;;;;;;;;;;-145.06;0.00;60892.56;6061660;22;19933;-92
2023/09/07 12:51:35;;;;;;;;;;;;;;;-145.06;0.00;60892.56;6060307;22;19907;-92
2023/09/07 12:54:15;;;;;;;;;;;;;;;-145.06;0.00;60892.56;6059574;22;19907;-92
2023/09/07 12:56:53;;;;;;;;;;;;;;;-145.06;0.00;60892.56;6060565;22;19908;-93
2023/09/07 12:59:33;;;;;;;;;;;;;;;-145.06;0.00;60892.56;6059739;22;19907;-92
2023/09/07 13:02:12;;;;;;;;;;;;;;;-145.06;0.00;60892.56;6059496;22;19907;-93
2023/09/07 13:04:50;;;;;;;;;;;;;;;-145.06;0.00;60892.56;6060542;22;19943;-94
2023/09/07 13:07:29;;;;;;;;;;;;;;;-145.06;0.00;60892.56;6059944;22;19907;-93
2023/09/07 13:10:09;;;;;;;;;;;;;;;-145.06;0.00;60892.56;6059957;22;19907;-93
2023/09/07 13:12:48;;;;;;;;;;;;;;;-145.06;0.00;60892.56;6060386;22;19947;-92
2023/09/07 13:15:27;;;;;;;;;;;;;;;-145.06;0.00;60892.56;6059859;22;20126;-93
2023/09/07 13:18:06;;;;;;;;;;;;;;;-145.06;0.00;60892.56;6060459;22;19908;-93
2023/09/07 13:20:46;;;;;;;;;;;;;;;-145.06;0.00;60892.56;6059603;22;19907;-92
2023/09/07 13:23:25;;;;;;;;;;;;;;;-145.06;0.00;60892.56;6058309;22;19907;-91
2023/09/07 13:26:07;;;;;;;;;;;;;;;-145.06;0.00;60892.56;6059380;22;19907;-93
2023/09/07 13:28:46;;;;;;;;;;;;;;;-145.06;0.00;60892.56;6059911;22;20342;-93
2023/09/07 13:31:25;;;;;;;;;;;;;;;-145.06;0.00;60892.56;6059629;22;20029;-94
2023/09/07 13:34:04;;;;;;;;;;;;;;;-145.06;0.00;60892.56;6057697;22;19911;-91
2023/09/07 13:36:43;;;;;;;;;;;;;;;-145.06;0.00;60892.56;6058553;22;19911;-93
2023/09/07 13:39:23;;;;;;;;;;;;;;;-145.06;0.00;60892.56;6058045;22;19915;-91
2023/09/07 13:42:02;;;;;;;;;;;;;;;-145.06;0.00;60892.56;6056151;22;19911;-90
2023/09/07 13:44:49;;;;;;;;;;;;;;;-145.06;0.00;60892.56;6057279;22;20219;-91
2023/09/07 13:47:28;;;;;;;;;;;;;;;-145.06;0.00;60892.56;6056744;22;19947;-93
2023/09/07 13:50:07;;;;;;;;;;;;;;;-145.06;0.00;60892.56;6059575;22;20010;-93
2023/09/07 13:52:46;;;;;;;;;;;;;;;-145.06;0.00;60892.56;6059603;22;19903;-93
2023/09/07 13:55:25;;;;;;;;;;;;;;;-145.06;0.00;60892.56;6058928;22;19907;-92
2023/09/07 13:58:04;;;;;;;;;;;;;;;-145.06;0.00;60892.56;6059010;22;19935;-92
2023/09/07 14:00:43;;;;;;;;;;;;;;;-145.06;0.00;60892.56;6058123;22;20270;-92
2023/09/07 14:03:22;;;;;;;;;;;;;;;-145.06;0.00;60892.56;6056857;22;19907;-90
2023/09/07 14:06:01;;;;;;;;;;;;;;;-145.06;0.00;60892.56;6071681;22;19908;-92